Time;durP1;ratioP1;P1;durP2;ratioP2;P2;SDS_P1;SDS_P2;PMS_P1;PMS_P2;Temp;Humidity;BMP_temperature;BMP_pressure;BME280_temperature;BME280_humidity;BME280_pressure;Samples;Min_cycle;Max_cycle;Signal;HPM_P1;HPM_P2
2021/07/10 00:00:13;;;;;;;6.88;5.55;;;17.30;77.60;;;17.51;61.92;98035.53;5084219;28;20048;-41
2021/07/10 00:02:41;;;;;;;8.88;6.63;;;17.20;77.50;;;17.48;61.82;98035.91;5084468;28;20051;-41
2021/07/10 00:05:14;;;;;;;7.95;6.03;;;17.20;77.60;;;17.45;61.94;98033.63;5084235;28;20144;-40
2021/07/10 00:07:43;;;;;;;7.65;6.07;;;17.10;77.90;;;17.42;62.17;98028.59;5083734;28;20237;-40
2021/07/10 00:10:15;;;;;;;7.93;6.65;;;17.10;78.00;;;17.40;62.10;98030.66;5084889;28;20361;-40
2021/07/10 00:12:43;;;;;;;10.07;6.00;;;17.10;78.20;;;17.41;62.26;98028.81;5085369;28;20090;-40
2021/07/10 00:15:15;;;;;;;7.30;6.32;;;17.10;78.10;;;17.41;62.17;98024.28;5084541;28;20058;-40
2021/07/10 00:17:44;;;;;;;7.07;6.38;;;17.10;78.10;;;17.40;61.93;98021.78;5085804;28;20246;-39
2021/07/10 00:20:13;;;;;;;7.25;6.53;;;17.10;77.90;;;17.39;62.12;98017.41;5086498;28;20054;-40
2021/07/10 00:22:42;;;;;;;8.73;6.10;;;17.10;78.00;;;17.36;62.03;98015.13;5084408;28;20048;-40
2021/07/10 00:25:15;;;;;;;7.88;7.07;;;17.10;78.00;;;17.36;62.15;98021.31;5084104;28;20054;-40
2021/07/10 00:27:44;;;;;;;6.18;5.57;;;17.10;78.00;;;17.32;62.10;98012.81;5084954;28;20248;-40
2021/07/10 00:30:16;;;;;;;8.00;6.15;;;17.00;78.10;;;17.30;62.16;98017.56;5083996;28;20052;-40
2021/07/10 00:32:44;;;;;;;8.95;7.18;;;17.00;78.10;;;17.26;62.26;98013.59;5084491;28;20372;-40
2021/07/10 00:35:13;;;;;;;7.82;5.50;;;17.00;78.30;;;17.23;62.18;98010.47;5086160;28;20763;-40
2021/07/10 00:37:41;;;;;;;6.90;6.13;;;16.90;78.50;;;17.20;62.36;98011.69;5084447;28;20047;-40
2021/07/10 00:40:11;;;;;;;7.75;6.90;;;16.90;78.70;;;17.18;62.61;98007.53;5084333;28;20357;-40
2021/07/10 00:42:40;;;;;;;8.07;7.22;;;16.80;78.80;;;17.15;62.72;97997.16;5084664;28;20052;-40
2021/07/10 00:45:10;;;;;;;8.80;6.88;;;16.90;78.90;;;17.16;62.61;97996.09;5084304;28;20044;-40
2021/07/10 00:47:39;;;;;;;7.88;7.07;;;16.90;79.00;;;17.11;62.80;97992.16;5083624;28;20349;-40
2021/07/10 00:50:18;;;;;;;8.50;7.70;;;16.80;79.00;;;17.05;62.91;97986.72;5084876;28;20062;-40
2021/07/10 00:52:46;;;;;;;8.65;6.88;;;16.80;79.50;;;17.01;62.98;97980.91;5084418;28;20047;-40
2021/07/10 00:55:16;;;;;;;8.20;7.18;;;16.70;79.70;;;16.97;63.16;97984.19;5085106;28;20256;-40
2021/07/10 00:57:45;;;;;;;9.32;7.40;;;16.60;80.00;;;16.95;63.24;97980.84;5083864;28;20100;-40
2021/07/10 01:00:21;;;;;;;8.48;7.57;;;16.60;80.20;;;16.93;63.23;97967.59;5083076;28;20047;-40
2021/07/10 01:02:51;;;;;;;7.28;6.57;;;16.60;80.30;;;16.90;63.37;97965.28;5064978;28;20052;-41
2021/07/10 01:05:25;;;;;;;8.05;6.68;;;16.60;80.30;;;16.90;63.50;97971.53;5085883;28;20464;-40
2021/07/10 01:07:55;;;;;;;9.05;6.93;;;16.60;80.50;;;16.92;63.21;97974.00;5065097;28;20082;-40
2021/07/10 01:10:24;;;;;;;8.48;6.93;;;16.70;80.40;;;16.93;63.58;97976.50;5085867;28;20383;-40
2021/07/10 01:12:54;;;;;;;10.88;7.28;;;16.70;80.30;;;16.92;63.38;97979.38;5084970;28;20066;-40
2021/07/10 01:15:26;;;;;;;8.77;7.60;;;16.70;80.20;;;16.89;63.17;97982.47;5084106;28;20059;-40
2021/07/10 01:17:57;;;;;;;10.20;7.70;;;16.60;80.30;;;16.84;63.36;97982.19;5084824;28;20052;-41
2021/07/10 01:20:27;;;;;;;8.60;7.72;;;16.50;80.50;;;16.77;63.61;97978.56;5084104;28;20043;-40
2021/07/10 01:22:57;;;;;;;12.23;7.88;;;16.40;80.90;;;16.72;63.57;97979.16;5084887;28;20052;-40
2021/07/10 01:25:27;;;;;;;8.10;7.03;;;16.30;81.20;;;16.68;63.68;97978.72;5083424;28;20051;-40
2021/07/10 01:27:55;;;;;;;9.32;8.15;;;16.30;81.30;;;16.68;63.59;97977.88;5083948;28;20478;-40
2021/07/10 01:30:25;;;;;;;8.30;7.50;;;16.30;81.20;;;16.62;63.63;97978.66;5064123;28;20056;-40
2021/07/10 01:32:55;;;;;;;9.68;7.85;;;16.20;81.50;;;16.56;63.70;97969.50;5080947;28;20067;-40
2021/07/10 01:35:23;;;;;;;9.38;7.82;;;16.10;81.80;;;16.50;64.04;97976.47;5083597;28;20386;-40
2021/07/10 01:37:52;;;;;;;10.35;7.95;;;16.10;82.20;;;16.48;63.92;97958.88;5084035;28;20066;-39
2021/07/10 01:40:23;;;;;;;8.98;7.68;;;16.10;83.10;;;16.45;64.14;97956.56;5083969;28;20046;-41
2021/07/10 01:42:51;;;;;;;9.60;7.82;;;16.10;82.20;;;16.44;64.30;97954.88;5087611;28;20050;-39
2021/07/10 01:45:20;;;;;;;10.88;7.75;;;16.10;82.20;;;16.43;64.20;97955.94;5086974;28;20051;-39
2021/07/10 01:47:51;;;;;;;9.10;8.20;;;16.10;82.00;;;16.43;64.18;97951.38;5087326;28;20379;-39
2021/07/10 01:50:20;;;;;;;10.15;7.93;;;16.10;81.90;;;16.42;63.99;97946.19;5086502;28;20261;-40
2021/07/10 01:52:48;;;;;;;11.38;7.07;;;16.10;81.90;;;16.41;64.36;97950.75;5088382;28;20222;-40
2021/07/10 01:55:16;;;;;;;9.95;8.73;;;16.10;82.00;;;16.41;64.24;97941.84;5069148;28;20052;-40
2021/07/10 01:57:48;;;;;;;9.93;8.05;;;16.10;82.00;;;16.41;64.34;97939.16;5068293;28;20048;-41
2021/07/10 02:00:25;;;;;;;8.95;8.02;;;16.10;82.20;;;16.40;64.07;97942.88;5087547;28;20051;-41
2021/07/10 02:02:55;;;;;;;10.27;9.05;;;16.10;82.30;;;16.38;64.35;97947.59;5085960;28;20245;-41
2021/07/10 02:05:26;;;;;;;10.18;7.82;;;16.00;82.20;;;16.34;64.21;97939.09;5088371;28;20056;-40
2021/07/10 02:07:58;;;;;;;9.73;7.72;;;16.00;82.50;;;16.31;64.47;97947.53;5069295;28;20127;-40
2021/07/10 02:10:30;;;;;;;9.25;8.13;;;16.00;82.50;;;16.31;64.19;97934.09;5087144;28;20063;-40
2021/07/10 02:13:06;;;;;;;9.02;8.05;;;16.00;82.30;;;16.27;64.31;97932.81;5087522;28;20052;-40
2021/07/10 02:15:35;;;;;;;10.07;7.80;;;16.00;82.20;;;16.27;64.38;97938.19;5088196;28;20464;-40
2021/07/10 02:18:04;;;;;;;10.18;8.13;;;16.00;82.40;;;16.24;64.59;97942.06;5085586;28;20350;-41
2021/07/10 02:20:34;;;;;;;9.75;8.05;;;16.00;82.50;;;16.24;64.72;97935.88;5085668;28;20048;-40
2021/07/10 02:23:04;;;;;;;9.90;7.63;;;16.00;82.50;;;16.23;64.71;97937.75;5087516;28;20044;-40
2021/07/10 02:25:32;;;;;;;12.50;8.32;;;16.00;82.50;;;16.23;64.43;97936.91;5087190;28;20044;-40
2021/07/10 02:28:00;;;;;;;9.65;8.32;;;15.90;82.50;;;16.18;64.98;97929.41;5087231;28;20258;-40
2021/07/10 02:30:33;;;;;;;9.77;8.77;;;15.80;82.90;;;16.13;65.12;97921.94;5087824;28;20048;-40
2021/07/10 02:33:05;;;;;;;8.88;8.00;;;15.80;83.30;;;16.10;65.22;97929.53;5070674;28;20256;-40
2021/07/10 02:35:33;;;;;;;9.02;7.95;;;15.80;83.80;;;16.06;65.39;97930.94;5086778;28;20133;-40
2021/07/10 02:38:01;;;;;;;11.70;8.82;;;15.70;83.90;;;16.03;65.51;97926.78;5085735;28;20070;-40
2021/07/10 02:40:29;;;;;;;12.30;9.52;;;15.70;84.10;;;16.04;65.81;97928.44;5087077;28;20285;-40
2021/07/10 02:42:58;;;;;;;13.75;8.82;;;15.80;84.30;;;16.07;65.77;97921.84;5086210;28;20475;-40
2021/07/10 02:45:26;;;;;;;10.05;7.90;;;15.90;84.40;;;16.09;65.79;97923.34;5086604;28;20357;-40
2021/07/10 02:47:54;;;;;;;9.45;8.48;;;15.90;84.20;;;16.11;65.79;97915.06;5085521;28;20054;-41
2021/07/10 02:50:25;;;;;;;9.82;8.50;;;15.90;84.30;;;16.13;66.04;97919.25;5087448;28;20341;-41
2021/07/10 02:52:54;;;;;;;9.25;8.35;;;15.90;84.30;;;16.16;66.09;97914.53;5084298;28;20059;-41
2021/07/10 02:55:24;;;;;;;10.02;8.90;;;16.00;84.00;;;16.17;65.79;97921.53;5086064;28;20146;-41
2021/07/10 02:57:52;;;;;;;9.77;8.45;;;16.00;83.60;;;16.17;65.56;97916.16;5086527;28;20062;-41
2021/07/10 03:00:22;;;;;;;8.98;8.07;;;16.00;83.50;;;16.16;65.49;97906.47;5087137;28;20056;-41
2021/07/10 03:02:51;;;;;;;10.43;8.85;;;15.90;83.30;;;16.12;65.20;97906.81;5085409;28;20052;-41
2021/07/10 03:05:19;;;;;;;10.10;8.25;;;15.80;83.10;;;16.09;65.35;97901.00;5085504;28;20066;-41
2021/07/10 03:07:47;;;;;;;9.43;8.20;;;15.80;83.10;;;16.06;65.16;97896.03;5085842;28;20056;-41
2021/07/10 03:10:22;;;;;;;10.23;9.10;;;15.80;83.40;;;16.05;65.37;97894.34;5085614;28;20062;-41
2021/07/10 03:12:50;;;;;;;9.48;7.80;;;15.80;83.40;;;16.04;65.13;97906.13;5085605;28;20055;-41
2021/07/10 03:15:18;;;;;;;9.18;8.27;;;15.70;83.10;;;16.00;65.13;97905.69;5085211;28;20062;-41
2021/07/10 03:17:48;;;;;;;10.95;8.65;;;15.70;83.20;;;15.96;65.27;97896.34;5085257;28;20040;-41
2021/07/10 03:20:21;;;;;;;9.43;8.52;;;15.70;83.30;;;15.95;65.26;97897.34;5086069;28;20054;-41
2021/07/10 03:22:50;;;;;;;9.70;8.57;;;15.70;83.50;;;15.93;65.35;97894.84;5086393;28;20052;-39
2021/07/10 03:25:18;;;;;;;12.65;9.77;;;15.60;83.50;;;15.90;65.62;97899.78;5085394;28;20380;-39
2021/07/10 03:27:48;;;;;;;10.38;9.25;;;15.60;83.90;;;15.86;65.75;97896.63;5086837;28;20058;-40
2021/07/10 03:30:19;;;;;;;10.55;9.45;;;15.60;84.10;;;15.87;65.74;97908.19;5086720;28;20066;-40
2021/07/10 03:32:49;;;;;;;10.25;9.13;;;15.60;84.00;;;15.84;65.69;97908.56;5086374;28;20066;-40
2021/07/10 03:35:19;;;;;;;12.68;9.60;;;15.50;83.90;;;15.82;65.65;97899.88;5068025;28;20115;-39
2021/07/10 03:37:49;;;;;;;10.90;9.77;;;15.50;84.10;;;15.78;65.99;97901.28;5085354;28;20039;-40
2021/07/10 03:40:22;;;;;;;12.23;9.90;;;15.50;84.60;;;15.75;66.00;97894.44;5086058;28;20044;-40
2021/07/10 03:42:54;;;;;;;11.43;9.65;;;15.50;85.00;;;15.76;66.18;97890.75;5084884;28;20044;-40
2021/07/10 03:45:22;;;;;;;10.60;9.25;;;15.50;85.10;;;15.77;66.18;97891.56;5086344;28;20056;-40
2021/07/10 03:47:50;;;;;;;10.50;8.73;;;15.50;84.90;;;15.78;66.05;97898.59;5086075;28;20359;-40
2021/07/10 03:50:19;;;;;;;14.18;9.95;;;15.50;84.60;;;15.78;66.12;97891.38;5068779;28;20323;-40
2021/07/10 03:52:47;;;;;;;11.48;8.55;;;15.60;84.30;;;15.75;66.24;97900.63;5084489;28;20052;-40
2021/07/10 03:55:16;;;;;;;11.27;9.90;;;15.50;84.70;;;15.73;66.33;97896.47;5085822;28;20095;-40
2021/07/10 03:57:45;;;;;;;11.25;9.55;;;15.50;85.00;;;15.74;66.54;97895.44;5085288;28;20048;-40
2021/07/10 04:00:20;;;;;;;10.43;9.32;;;15.50;85.00;;;15.76;66.51;97893.44;5086181;28;20714;-40
2021/07/10 04:02:49;;;;;;;13.05;9.88;;;15.60;85.00;;;15.79;66.60;97895.72;5084039;28;20048;-40
2021/07/10 04:05:19;;;;;;;13.48;9.68;;;15.60;84.80;;;15.83;66.66;97898.88;5085504;28;20051;-40
2021/07/10 04:07:47;;;;;;;11.70;10.48;;;15.70;84.80;;;15.84;66.68;97906.72;5083901;28;20365;-41
2021/07/10 04:10:16;;;;;;;13.73;12.23;;;15.60;84.70;;;15.86;66.76;97902.00;5083667;28;20253;-41
2021/07/10 04:12:46;;;;;;;13.60;10.20;;;15.70;84.80;;;15.87;66.71;97903.66;5084584;28;20417;-41
2021/07/10 04:15:17;;;;;;;12.18;9.32;;;15.70;84.90;;;15.89;66.74;97904.28;5085200;28;20051;-41
2021/07/10 04:17:46;;;;;;;13.32;9.23;;;15.70;84.80;;;15.90;66.97;97894.41;5084728;28;20047;-41
2021/07/10 04:20:17;;;;;;;11.80;10.40;;;15.70;84.90;;;15.90;66.66;97897.91;5083194;28;20052;-41
2021/07/10 04:22:46;;;;;;;10.15;8.88;;;15.70;85.00;;;15.91;66.66;97891.50;5085294;28;20044;-41
2021/07/10 04:25:18;;;;;;;13.57;10.90;;;15.80;84.90;;;15.92;66.63;97890.50;5066632;28;20227;-41
2021/07/10 04:27:47;;;;;;;11.05;9.45;;;15.80;84.90;;;15.94;66.84;97887.63;5085459;28;20244;-41
2021/07/10 04:30:20;;;;;;;13.40;9.93;;;15.80;85.00;;;15.94;66.91;97890.31;5087088;28;20252;-41
2021/07/10 04:32:49;;;;;;;12.45;9.70;;;15.80;85.30;;;15.94;67.06;97893.84;5043623;28;20534;-41
2021/07/10 04:35:20;;;;;;;13.05;10.18;;;15.80;85.30;;;15.95;67.05;97891.97;5044416;28;20388;-41
2021/07/10 04:37:48;;;;;;;12.95;10.10;;;15.80;85.30;;;15.98;67.08;97880.88;5045521;28;20227;-40
2021/07/10 04:40:16;;;;;;;12.70;10.13;;;15.80;85.30;;;16.00;67.13;97894.94;5043084;28;20056;-40
2021/07/10 04:42:45;;;;;;;12.63;11.27;;;15.80;85.30;;;16.01;67.11;97895.75;5044947;28;20059;-40
2021/07/10 04:45:14;;;;;;;9.65;8.65;;;15.90;85.30;;;16.03;66.93;97893.72;5044149;28;20061;-40
2021/07/10 04:47:43;;;;;;;13.95;9.93;;;15.80;85.30;;;16.03;67.24;97893.72;5043916;28;20061;-40
2021/07/10 04:50:13;;;;;;;10.00;8.57;;;15.90;85.50;;;16.03;67.36;97888.34;5043559;28;20232;-40
2021/07/10 04:52:42;;;;;;;14.88;9.60;;;15.90;85.30;;;16.05;67.10;97892.53;5044811;28;20053;-40
2021/07/10 04:55:12;;;;;;;11.48;9.25;;;16.00;85.20;;;16.08;67.30;97893.97;5026490;28;20056;-39
2021/07/10 04:57:42;;;;;;;10.65;9.15;;;15.90;85.20;;;16.09;67.43;97893.81;5044590;28;20049;-40
2021/07/10 05:00:11;;;;;;;14.80;10.02;;;16.00;85.20;;;16.10;67.40;97889.25;5045343;28;20044;-40
2021/07/10 05:02:40;;;;;;;11.57;9.93;;;16.00;85.30;;;16.10;67.78;97890.06;5043697;28;20048;-40
2021/07/10 05:05:10;;;;;;;11.65;9.82;;;16.10;85.50;;;16.14;67.79;97893.22;5044717;28;20053;-40
2021/07/10 05:07:46;;;;;;;13.85;10.57;;;16.10;85.50;;;16.16;68.08;97898.41;5043879;28;20057;-40
2021/07/10 05:10:15;;;;;;;12.23;10.13;;;16.20;85.30;;;16.17;68.18;97900.91;5043306;28;20049;-40
2021/07/10 05:12:43;;;;;;;12.45;9.77;;;16.30;85.20;;;16.23;67.96;97894.75;5043702;28;20055;-42
2021/07/10 05:15:12;;;;;;;10.15;9.00;;;16.30;85.20;;;16.22;68.30;97903.84;5043785;28;20057;-39
2021/07/10 05:17:41;;;;;;;11.43;10.23;;;16.40;85.20;;;16.22;68.46;97908.38;5046268;28;20049;-41
2021/07/10 05:20:10;;;;;;;10.95;9.40;;;16.40;85.10;;;16.27;68.37;97898.72;5047659;28;20049;-40
2021/07/10 05:22:39;;;;;;;11.18;9.57;;;16.40;85.30;;;16.31;68.29;97894.63;5049243;28;20135;-40
2021/07/10 05:25:09;;;;;;;9.80;8.63;;;16.50;85.20;;;16.37;68.18;97890.34;5029398;28;20067;-40
2021/07/10 05:27:38;;;;;;;11.95;10.23;;;16.50;85.40;;;16.41;68.28;97890.81;5047071;28;20063;-40
2021/07/10 05:30:13;;;;;;;12.60;10.10;;;16.50;85.40;;;16.45;68.32;97884.84;5029663;28;20241;-40
2021/07/10 05:32:42;;;;;;;12.95;9.77;;;16.50;85.50;;;16.48;68.21;97881.78;5030667;28;20061;-40
2021/07/10 05:35:12;;;;;;;10.50;9.50;;;16.50;85.40;;;16.52;68.08;97874.16;5048799;28;20045;-39
2021/07/10 05:37:40;;;;;;;11.43;9.52;;;16.60;85.40;;;16.55;68.63;97879.13;5048317;28;20055;-40
2021/07/10 05:40:08;;;;;;;12.43;10.05;;;16.70;85.40;;;16.58;68.42;97880.63;5047120;28;20053;-40
2021/07/10 05:42:37;;;;;;;11.65;10.55;;;16.70;85.30;;;16.60;68.37;97878.56;5047029;28;20056;-40
2021/07/10 05:45:06;;;;;;;11.68;9.80;;;16.80;85.40;;;16.66;68.35;97883.16;5049042;28;20362;-40
2021/07/10 05:47:34;;;;;;;12.18;9.70;;;16.70;85.30;;;16.71;68.30;97878.03;5047923;28;20070;-40
2021/07/10 05:50:04;;;;;;;11.27;9.60;;;16.80;85.40;;;16.74;68.25;97875.78;5045590;28;20053;-41
2021/07/10 05:52:32;;;;;;;11.38;9.05;;;16.80;85.40;;;16.78;68.22;97881.59;5046439;28;20082;-40
2021/07/10 05:55:00;;;;;;;10.55;9.55;;;16.90;85.60;;;16.81;68.47;97883.06;5046641;28;20060;-42
2021/07/10 05:57:28;;;;;;;10.48;9.38;;;16.90;85.60;;;16.86;68.43;97886.03;5047566;28;20049;-40
2021/07/10 05:59:56;;;;;;;12.25;9.90;;;17.00;85.60;;;16.90;68.48;97887.31;5047148;28;20037;-40
2021/07/10 06:02:24;;;;;;;11.38;9.32;;;17.00;85.60;;;16.92;68.39;97885.25;5047231;28;20063;-40
2021/07/10 06:04:52;;;;;;;11.55;10.02;;;17.00;85.50;;;16.95;68.45;97882.19;5048258;28;20237;-41
2021/07/10 06:07:20;;;;;;;11.13;9.77;;;17.10;85.70;;;16.99;68.54;97886.13;5047228;28;20357;-40
2021/07/10 06:09:48;;;;;;;9.52;8.52;;;17.10;85.80;;;17.01;68.68;97881.38;5046647;28;20049;-40
2021/07/10 06:12:16;;;;;;;9.82;8.82;;;17.10;85.70;;;17.06;68.60;97883.47;5046178;28;20060;-40
2021/07/10 06:14:44;;;;;;;10.35;9.30;;;17.20;85.50;;;17.10;68.44;97876.69;5048112;28;20059;-42
2021/07/10 06:17:12;;;;;;;9.52;8.63;;;17.30;85.60;;;17.15;68.58;97881.47;5047291;28;20049;-41
2021/07/10 06:19:40;;;;;;;9.40;8.23;;;17.30;85.60;;;17.16;68.82;97878.59;5046185;28;20208;-40
2021/07/10 06:22:11;;;;;;;8.38;7.55;;;17.30;85.40;;;17.19;68.35;97883.56;5047415;28;20057;-40
2021/07/10 06:24:39;;;;;;;10.10;7.28;;;17.40;85.30;;;17.25;68.39;97884.63;5046427;28;20052;-40
2021/07/10 06:27:07;;;;;;;8.70;7.90;;;17.40;85.30;;;17.30;68.29;97884.88;5046785;28;20218;-40
2021/07/10 06:29:36;;;;;;;8.20;7.35;;;17.50;85.20;;;17.34;68.23;97877.25;5046980;28;20060;-40
2021/07/10 06:32:07;;;;;;;9.63;8.63;;;17.50;85.10;;;17.40;68.33;97881.84;5046657;28;20040;-40
2021/07/10 06:34:35;;;;;;;7.90;7.10;;;17.50;85.00;;;17.42;68.24;97872.53;5047457;28;20435;-40
2021/07/10 06:37:05;;;;;;;10.75;8.70;;;17.60;85.00;;;17.45;68.30;97882.06;5046383;28;20067;-40
2021/07/10 06:39:33;;;;;;;8.18;7.38;;;17.60;84.90;;;17.47;68.38;97878.16;5045991;28;20439;-40
2021/07/10 06:42:01;;;;;;;6.93;6.32;;;17.70;84.80;;;17.50;68.18;97879.59;5047950;28;20241;-40
2021/07/10 06:44:29;;;;;;;8.88;8.07;;;17.70;84.60;;;17.56;68.04;97875.28;5047046;28;20056;-40
2021/07/10 06:46:58;;;;;;;7.93;7.03;;;17.70;84.50;;;17.61;68.18;97883.59;5047614;28;20070;-40
2021/07/10 06:49:26;;;;;;;8.50;6.85;;;17.80;84.40;;;17.66;67.95;97875.72;5047526;28;20053;-40
2021/07/10 06:51:54;;;;;;;7.90;7.20;;;17.80;84.40;;;17.71;67.89;97876.78;5046736;28;20228;-40
2021/07/10 06:54:22;;;;;;;8.60;7.45;;;17.90;84.40;;;17.78;67.65;97876.84;5046479;28;20059;-40
2021/07/10 06:56:50;;;;;;;9.20;7.35;;;18.00;84.10;;;17.82;67.72;97877.25;5048384;28;20117;-40
2021/07/10 06:59:18;;;;;;;9.18;6.53;;;18.00;83.90;;;17.84;67.67;97875.22;5044989;28;20114;-40
2021/07/10 07:01:50;;;;;;;6.82;5.85;;;18.00;83.80;;;17.90;67.68;97874.41;5045747;28;20055;-40
2021/07/10 07:04:19;;;;;;;7.82;7.03;;;18.10;84.00;;;17.95;67.59;97868.41;5046325;28;20045;-40
2021/07/10 07:06:47;;;;;;;10.50;6.32;;;18.10;83.90;;;17.97;67.45;97869.88;5046855;28;20600;-40
2021/07/10 07:09:15;;;;;;;8.20;6.53;;;18.10;83.70;;;18.01;67.26;97867.59;5045605;28;20044;-40
2021/07/10 07:11:43;;;;;;;8.48;6.03;;;18.20;83.50;;;18.05;67.06;97861.63;5045455;28;20067;-40
2021/07/10 07:14:11;;;;;;;7.07;6.28;;;18.20;83.30;;;18.09;67.21;97859.34;5046083;28;20063;-40
2021/07/10 07:16:39;;;;;;;8.07;6.32;;;18.30;83.20;;;18.13;67.03;97855.22;5045942;28;20049;-40
2021/07/10 07:19:07;;;;;;;5.38;4.85;;;18.30;83.10;;;18.19;66.86;97851.69;5045827;28;20055;-40
2021/07/10 07:21:35;;;;;;;6.10;5.50;;;18.40;82.80;;;18.22;66.57;97845.91;5046103;28;20451;-40
2021/07/10 07:24:03;;;;;;;7.05;5.75;;;18.40;82.20;;;18.26;66.34;97843.59;5045934;28;20086;-41
2021/07/10 07:26:31;;;;;;;6.65;5.95;;;18.40;81.80;;;18.29;66.18;97851.28;5044955;28;20071;-40
2021/07/10 07:28:59;;;;;;;6.38;4.85;;;18.50;82.00;;;18.32;65.93;97842.81;5045416;28;20052;-41
2021/07/10 07:31:27;;;;;;;6.47;5.20;;;18.50;81.30;;;18.34;65.72;97838.03;5045141;28;20093;-41
2021/07/10 07:33:55;;;;;;;5.53;5.03;;;18.50;81.00;;;18.40;65.55;97836.38;5044875;28;20408;-41
2021/07/10 07:36:24;;;;;;;4.97;4.38;;;18.60;80.80;;;18.45;65.36;97844.66;5044391;28;20083;-41
2021/07/10 07:38:52;;;;;;;5.47;4.75;;;18.70;80.70;;;18.48;64.74;97839.69;5042765;28;20055;-41
2021/07/10 07:41:20;;;;;;;6.13;5.53;;;18.70;79.80;;;18.52;64.57;97831.19;5044758;28;20048;-41
2021/07/10 07:43:48;;;;;;;5.65;4.35;;;18.70;79.30;;;18.58;64.33;97835.75;5045171;28;20557;-40
2021/07/10 07:46:16;;;;;;;7.43;4.72;;;18.80;79.00;;;18.61;64.26;97824.53;5045904;28;20049;-40
2021/07/10 07:48:45;;;;;;;6.40;4.82;;;18.80;78.90;;;18.67;64.00;97818.34;5046713;28;20353;-40
2021/07/10 07:51:15;;;;;;;5.40;4.65;;;18.90;78.40;;;18.71;63.74;97822.28;5045579;28;20388;-41
2021/07/10 07:53:45;;;;;;;5.68;4.90;;;19.00;78.00;;;18.77;63.79;97820.63;5044074;28;20063;-41
2021/07/10 07:56:13;;;;;;;5.90;4.68;;;19.00;78.10;;;18.79;63.93;97822.06;5045267;28;20059;-41
2021/07/10 07:58:41;;;;;;;4.60;4.20;;;19.10;78.30;;;18.87;63.87;97815.63;5045276;28;20048;-41
2021/07/10 08:01:10;;;;;;;6.38;5.25;;;19.20;78.40;;;18.96;63.78;97817.09;5041284;28;20215;-41
2021/07/10 08:03:38;;;;;;;5.38;4.18;;;19.20;78.10;;;19.04;63.59;97819.53;5042944;28;20053;-41
2021/07/10 08:06:07;;;;;;;4.50;4.10;;;19.30;78.20;;;19.12;62.93;97829.28;5026876;28;20048;-41
2021/07/10 08:08:39;;;;;;;5.78;4.03;;;19.40;77.10;;;19.19;61.99;97827.41;5043241;28;20211;-41
2021/07/10 08:11:09;;;;;;;4.68;3.67;;;19.50;76.10;;;19.22;61.16;97820.75;5044273;28;20047;-41
2021/07/10 08:13:38;;;;;;;5.95;4.43;;;19.50;74.60;;;19.27;61.42;97812.84;5026835;28;20044;-41
2021/07/10 08:16:09;;;;;;;5.82;5.22;;;19.60;74.90;;;19.33;61.79;97820.09;5044736;28;20045;-42
2021/07/10 08:18:38;;;;;;;5.65;4.65;;;19.70;75.50;;;19.38;62.41;97816.75;5039508;28;20064;-41
2021/07/10 08:21:07;;;;;;;5.45;4.90;;;19.70;76.20;;;19.47;62.45;97823.56;5044743;28;20051;-41
2021/07/10 08:23:35;;;;;;;5.97;4.40;;;19.80;76.50;;;19.53;62.24;97819.19;5045505;28;20063;-41
2021/07/10 08:26:03;;;;;;;8.32;4.88;;;19.90;76.10;;;19.59;62.08;97816.44;5044754;28;20067;-42
2021/07/10 08:28:31;;;;;;;5.25;4.65;;;19.90;76.00;;;19.63;62.00;97809.56;5045604;28;20060;-41
2021/07/10 08:31:00;;;;;;;5.88;5.10;;;20.00;76.00;;;19.66;62.05;97805.63;5044384;28;20118;-41
2021/07/10 08:33:28;;;;;;;6.10;4.65;;;20.00;76.00;;;19.71;61.97;97808.50;5045300;28;20057;-41
2021/07/10 08:35:56;;;;;;;4.63;4.15;;;20.00;75.80;;;19.75;61.47;97817.84;5043437;28;20245;-41
2021/07/10 08:38:25;;;;;;;5.65;4.70;;;20.00;75.40;;;19.79;61.19;97810.13;5045344;28;20091;-41
2021/07/10 08:40:53;;;;;;;6.10;4.78;;;20.00;74.70;;;19.81;61.23;97802.66;5043999;28;20368;-39
2021/07/10 08:43:22;;;;;;;5.10;4.55;;;20.10;74.70;;;19.86;61.11;97803.66;5044234;28;20060;-39
2021/07/10 08:45:50;;;;;;;5.72;4.60;;;20.10;75.00;;;19.92;60.81;97793.88;5045273;28;20053;-39
2021/07/10 08:48:18;;;;;;;5.47;4.97;;;20.20;74.30;;;19.94;60.73;97799.88;5044625;28;20049;-40
2021/07/10 08:50:46;;;;;;;6.07;5.38;;;20.30;74.30;;;19.99;60.86;97791.13;5010706;28;20063;-41
2021/07/10 08:53:14;;;;;;;5.90;4.88;;;20.30;74.60;;;20.04;60.94;97797.50;5043610;28;20053;-41
2021/07/10 08:55:43;;;;;;;4.53;4.03;;;20.30;74.80;;;20.10;60.27;97795.00;5044157;28;20273;-41
2021/07/10 08:58:10;;;;;;;4.68;4.13;;;20.40;73.80;;;20.16;60.09;97802.22;5025303;28;20573;-42
2021/07/10 09:00:41;;;;;;;6.30;4.93;;;20.40;73.50;;;20.20;59.67;97796.19;5043967;28;20059;-41
2021/07/10 09:03:09;;;;;;;5.10;4.18;;;20.50;73.10;;;20.25;59.67;97785.50;5043769;28;20057;-41
2021/07/10 09:05:37;;;;;;;6.32;5.00;;;20.60;72.60;;;20.28;59.39;97786.97;5045468;28;20063;-41
2021/07/10 09:08:26;;;;;;;4.97;4.55;;;20.60;72.20;;;20.35;58.13;97785.03;5027680;28;20360;-41
2021/07/10 09:11:14;;;;;;;6.82;4.47;;;20.70;69.50;;;20.44;59.12;97783.69;5044762;28;20049;-41
2021/07/10 09:13:53;;;;;;;5.00;4.28;;;20.70;72.10;;;20.50;57.55;97782.00;5042649;28;20059;-41
2021/07/10 09:16:44;;;;;;;5.05;4.43;;;20.80;70.80;;;20.54;58.55;97788.63;5045982;28;20061;-41
2021/07/10 09:19:12;;;;;;;5.40;4.90;;;20.90;70.20;;;20.58;58.31;97789.81;5025997;28;20052;-41
2021/07/10 09:21:53;;;;;;;4.57;4.10;;;20.90;70.80;;;20.63;58.17;97786.50;5044141;28;20084;-41
2021/07/10 09:24:34;;;;;;;5.90;4.10;;;20.90;69.10;;;20.62;57.31;97780.25;5043772;28;20135;-41
2021/07/10 09:27:06;;;;;;;4.25;3.85;;;21.00;67.70;;;20.68;56.46;97780.41;5044622;28;20049;-41
2021/07/10 09:29:37;;;;;;;3.97;3.42;;;21.00;69.20;;;20.75;57.03;97779.28;5028257;28;20220;-41
2021/07/10 09:32:12;;;;;;;4.65;4.13;;;21.00;69.00;;;20.77;54.81;97784.50;5043849;28;20372;-44
2021/07/10 09:34:44;;;;;;;4.53;3.78;;;21.10;67.00;;;20.86;55.72;97775.03;5044480;28;20189;-44
2021/07/10 09:37:18;;;;;;;9.55;4.43;;;21.20;67.60;;;20.90;55.28;97778.94;5043611;28;20372;-43
2021/07/10 09:40:12;;;;;;;4.30;3.90;;;21.20;66.80;;;20.94;55.35;97776.63;5043591;28;20059;-43
2021/07/10 09:42:43;;;;;;;4.75;3.72;;;21.30;66.50;;;20.97;55.30;97770.75;5044724;28;20041;-44
2021/07/10 09:45:23;;;;;;;4.72;3.72;;;21.40;66.40;;;21.02;54.29;97776.31;5045344;28;20041;-44
2021/07/10 09:47:52;;;;;;;4.35;3.35;;;21.40;64.20;;;21.09;54.18;97773.53;5044902;28;20051;-44
2021/07/10 09:50:25;;;;;;;9.25;4.03;;;21.40;65.30;;;21.15;52.50;97764.50;5045809;28;20049;-44
2021/07/10 09:52:53;;;;;;;3.83;3.08;;;21.50;64.10;;;21.21;53.80;97761.72;5043909;28;20057;-44
2021/07/10 09:55:28;;;;;;;3.88;3.15;;;21.60;64.60;;;21.27;53.36;97762.72;5043908;28;20060;-45
2021/07/10 09:57:59;;;;;;;4.05;3.65;;;21.60;63.70;;;21.30;53.23;97762.25;5044854;28;20055;-44
2021/07/10 10:00:27;;;;;;;5.00;3.92;;;21.70;63.10;;;21.34;53.12;97755.31;5026826;28;20051;-43
2021/07/10 10:02:56;;;;;;;4.28;3.42;;;21.70;63.70;;;21.38;53.11;97755.69;5028122;28;20092;-43
2021/07/10 10:05:29;;;;;;;3.95;3.45;;;21.80;63.70;;;21.45;53.07;97755.66;5046511;28;20063;-44
2021/07/10 10:08:01;;;;;;;3.70;3.20;;;21.80;63.20;;;21.50;52.64;97742.22;5047563;28;20056;-44
2021/07/10 10:10:39;;;;;;;4.32;3.45;;;21.90;63.10;;;21.51;50.03;97742.00;5028532;28;20049;-43
2021/07/10 10:13:07;;;;;;;3.80;3.40;;;21.90;61.50;;;21.57;52.36;97753.81;5049130;28;20049;-43
2021/07/10 10:15:50;;;;;;;5.70;3.55;;;21.90;63.10;;;21.64;52.37;97746.44;5047936;28;20045;-44
2021/07/10 10:18:24;;;;;;;4.00;3.33;;;22.00;61.40;;;21.68;52.35;97749.50;5046683;28;20059;-43
2021/07/10 10:20:53;;;;;;;4.03;3.63;;;22.00;62.20;;;21.70;52.06;97742.78;5046647;28;20052;-44
2021/07/10 10:23:22;;;;;;;4.32;3.90;;;22.00;62.60;;;21.74;51.90;97745.88;5047246;28;20067;-44
2021/07/10 10:25:51;;;;;;;4.57;3.92;;;22.00;62.40;;;21.78;51.47;97742.47;5048384;28;20071;-43